sensor_id;sensor_type;location;lat;lon;timestamp;P1;durP1;ratioP1;P2;durP2;ratioP2
10201;SDS011;5143;42.584;23.164;2023-06-14T00:02:00;22.37;;;12.87;;
10201;SDS011;5143;42.584;23.164;2023-06-14T00:04:27;17.23;;;12.97;;
10201;SDS011;5143;42.584;23.164;2023-06-14T00:06:54;23.93;;;12.87;;
10201;SDS011;5143;42.584;23.164;2023-06-14T00:09:21;18.40;;;12.57;;
10201;SDS011;5143;42.584;23.164;2023-06-14T00:11:49;16.30;;;12.50;;
10201;SDS011;5143;42.584;23.164;2023-06-14T00:14:16;23.63;;;14.47;;
10201;SDS011;5143;42.584;23.164;2023-06-14T00:16:42;25.27;;;14.20;;
10201;SDS011;5143;42.584;23.164;2023-06-14T00:19:09;24.47;;;14.77;;
10201;SDS011;5143;42.584;23.164;2023-06-14T00:21:36;19.77;;;13.63;;
10201;SDS011;5143;42.584;23.164;2023-06-14T00:24:03;23.70;;;14.37;;
10201;SDS011;5143;42.584;23.164;2023-06-14T00:26:29;27.17;;;16.30;;
10201;SDS011;5143;42.584;23.164;2023-06-14T00:28:57;21.50;;;15.93;;
10201;SDS011;5143;42.584;23.164;2023-06-14T00:31:24;26.13;;;14.80;;
10201;SDS011;5143;42.584;23.164;2023-06-14T00:33:50;21.03;;;13.80;;
10201;SDS011;5143;42.584;23.164;2023-06-14T00:36:17;25.10;;;14.67;;
10201;SDS011;5143;42.584;23.164;2023-06-14T00:38:43;23.13;;;14.33;;
10201;SDS011;5143;42.584;23.164;2023-06-14T00:41:10;18.07;;;13.57;;
10201;SDS011;5143;42.584;23.164;2023-06-14T00:43:36;16.73;;;11.37;;
10201;SDS011;5143;42.584;23.164;2023-06-14T00:46:04;14.07;;;10.60;;
10201;SDS011;5143;42.584;23.164;2023-06-14T00:48:31;18.40;;;13.43;;
10201;SDS011;5143;42.584;23.164;2023-06-14T00:50:58;20.63;;;13.33;;
10201;SDS011;5143;42.584;23.164;2023-06-14T00:53:29;14.73;;;12.90;;
10201;SDS011;5143;42.584;23.164;2023-06-14T00:55:56;18.60;;;12.23;;
10201;SDS011;5143;42.584;23.164;2023-06-14T00:58:22;18.03;;;12.43;;
10201;SDS011;5143;42.584;23.164;2023-06-14T01:00:49;18.43;;;11.70;;
10201;SDS011;5143;42.584;23.164;2023-06-14T01:03:17;17.77;;;10.97;;
10201;SDS011;5143;42.584;23.164;2023-06-14T01:05:47;17.70;;;10.90;;
10201;SDS011;5143;42.584;23.164;2023-06-14T01:08:15;17.40;;;10.47;;
10201;SDS011;5143;42.584;23.164;2023-06-14T01:10:45;19.60;;;11.57;;
10201;SDS011;5143;42.584;23.164;2023-06-14T01:13:15;26.07;;;11.90;;
10201;SDS011;5143;42.584;23.164;2023-06-14T01:15:45;10.13;;;8.70;;
10201;SDS011;5143;42.584;23.164;2023-06-14T01:18:13;14.17;;;9.23;;
10201;SDS011;5143;42.584;23.164;2023-06-14T01:20:43;12.37;;;9.90;;
10201;SDS011;5143;42.584;23.164;2023-06-14T01:23:13;12.87;;;9.30;;
10201;SDS011;5143;42.584;23.164;2023-06-14T01:25:40;15.13;;;9.27;;
10201;SDS011;5143;42.584;23.164;2023-06-14T01:28:10;9.30;;;8.17;;
10201;SDS011;5143;42.584;23.164;2023-06-14T01:30:38;9.77;;;8.23;;
10201;SDS011;5143;42.584;23.164;2023-06-14T01:33:09;15.27;;;8.87;;
10201;SDS011;5143;42.584;23.164;2023-06-14T01:35:36;13.90;;;8.37;;
10201;SDS011;5143;42.584;23.164;2023-06-14T01:38:03;13.00;;;8.73;;
10201;SDS011;5143;42.584;23.164;2023-06-14T01:40:31;18.00;;;8.90;;
10201;SDS011;5143;42.584;23.164;2023-06-14T01:42:59;11.53;;;9.87;;
10201;SDS011;5143;42.584;23.164;2023-06-14T01:45:26;17.60;;;10.10;;
10201;SDS011;5143;42.584;23.164;2023-06-14T01:47:53;17.63;;;10.43;;
10201;SDS011;5143;42.584;23.164;2023-06-14T01:50:20;15.93;;;10.83;;
10201;SDS011;5143;42.584;23.164;2023-06-14T01:52:46;19.57;;;10.67;;
10201;SDS011;5143;42.584;23.164;2023-06-14T01:55:13;21.73;;;11.53;;
10201;SDS011;5143;42.584;23.164;2023-06-14T01:57:41;18.47;;;12.03;;
10201;SDS011;5143;42.584;23.164;2023-06-14T02:00:07;12.20;;;8.87;;
10201;SDS011;5143;42.584;23.164;2023-06-14T02:02:37;19.67;;;11.37;;
10201;SDS011;5143;42.584;23.164;2023-06-14T02:05:04;17.33;;;10.73;;
10201;SDS011;5143;42.584;23.164;2023-06-14T02:07:30;13.60;;;10.70;;
10201;SDS011;5143;42.584;23.164;2023-06-14T02:09:58;18.43;;;11.37;;
10201;SDS011;5143;42.584;23.164;2023-06-14T02:12:24;24.77;;;12.50;;
10201;SDS011;5143;42.584;23.164;2023-06-14T02:14:52;17.40;;;11.43;;
10201;SDS011;5143;42.584;23.164;2023-06-14T02:17:19;19.43;;;11.60;;
10201;SDS011;5143;42.584;23.164;2023-06-14T02:19:45;18.73;;;11.70;;
10201;SDS011;5143;42.584;23.164;2023-06-14T02:22:12;18.97;;;11.70;;
10201;SDS011;5143;42.584;23.164;2023-06-14T02:24:40;19.23;;;11.10;;
10201;SDS011;5143;42.584;23.164;2023-06-14T02:27:06;15.80;;;11.10;;
10201;SDS011;5143;42.584;23.164;2023-06-14T02:29:33;15.60;;;10.43;;
10201;SDS011;5143;42.584;23.164;2023-06-14T02:32:01;36.67;;;25.37;;
10201;SDS011;5143;42.584;23.164;2023-06-14T02:34:28;37.30;;;24.33;;
10201;SDS011;5143;42.584;23.164;2023-06-14T02:36:54;27.33;;;18.37;;
10201;SDS011;5143;42.584;23.164;2023-06-14T02:39:21;32.57;;;22.00;;
10201;SDS011;5143;42.584;23.164;2023-06-14T02:41:48;38.47;;;23.20;;
10201;SDS011;5143;42.584;23.164;2023-06-14T02:44:15;27.00;;;20.97;;
10201;SDS011;5143;42.584;23.164;2023-06-14T02:46:42;21.70;;;16.07;;
10201;SDS011;5143;42.584;23.164;2023-06-14T02:49:10;23.20;;;17.43;;
10201;SDS011;5143;42.584;23.164;2023-06-14T02:51:37;18.77;;;16.77;;
10201;SDS011;5143;42.584;23.164;2023-06-14T02:54:04;21.13;;;13.50;;
10201;SDS011;5143;42.584;23.164;2023-06-14T02:56:30;13.20;;;11.10;;
10201;SDS011;5143;42.584;23.164;2023-06-14T02:58:56;11.70;;;10.47;;
10201;SDS011;5143;42.584;23.164;2023-06-14T03:01:25;15.53;;;10.20;;
10201;SDS011;5143;42.584;23.164;2023-06-14T03:03:58;15.90;;;9.80;;
10201;SDS011;5143;42.584;23.164;2023-06-14T03:06:26;16.83;;;10.57;;
10201;SDS011;5143;42.584;23.164;2023-06-14T03:08:54;13.23;;;9.50;;
10201;SDS011;5143;42.584;23.164;2023-06-14T03:11:24;11.87;;;9.57;;
10201;SDS011;5143;42.584;23.164;2023-06-14T03:13:50;10.80;;;9.30;;
10201;SDS011;5143;42.584;23.164;2023-06-14T03:16:17;11.20;;;7.77;;
10201;SDS011;5143;42.584;23.164;2023-06-14T03:18:45;8.93;;;5.93;;
10201;SDS011;5143;42.584;23.164;2023-06-14T03:21:11;10.20;;;6.53;;
10201;SDS011;5143;42.584;23.164;2023-06-14T03:23:39;9.47;;;7.30;;
10201;SDS011;5143;42.584;23.164;2023-06-14T03:26:06;10.73;;;7.30;;
10201;SDS011;5143;42.584;23.164;2023-06-14T03:28:33;13.43;;;6.93;;
10201;SDS011;5143;42.584;23.164;2023-06-14T03:30:59;9.87;;;8.10;;
10201;SDS011;5143;42.584;23.164;2023-06-14T03:33:26;14.00;;;7.93;;
10201;SDS011;5143;42.584;23.164;2023-06-14T03:35:53;12.90;;;10.23;;
10201;SDS011;5143;42.584;23.164;2023-06-14T03:38:21;13.93;;;10.37;;
10201;SDS011;5143;42.584;23.164;2023-06-14T03:40:49;9.43;;;8.07;;
10201;SDS011;5143;42.584;23.164;2023-06-14T03:43:15;14.03;;;8.90;;
10201;SDS011;5143;42.584;23.164;2023-06-14T03:45:42;9.33;;;7.97;;
10201;SDS011;5143;42.584;23.164;2023-06-14T03:48:08;11.90;;;7.57;;
10201;SDS011;5143;42.584;23.164;2023-06-14T03:50:35;11.53;;;8.33;;
10201;SDS011;5143;42.584;23.164;2023-06-14T03:53:03;10.83;;;6.93;;
10201;SDS011;5143;42.584;23.164;2023-06-14T03:55:29;12.17;;;6.83;;
10201;SDS011;5143;42.584;23.164;2023-06-14T03:57:59;7.17;;;5.57;;
10201;SDS011;5143;42.584;23.164;2023-06-14T04:00:26;7.43;;;6.13;;
10201;SDS011;5143;42.584;23.164;2023-06-14T04:02:52;8.17;;;6.67;;
10201;SDS011;5143;42.584;23.164;2023-06-14T04:05:19;7.93;;;7.00;;
10201;SDS011;5143;42.584;23.164;2023-06-14T04:07:46;9.90;;;6.67;;
10201;SDS011;5143;42.584;23.164;2023-06-14T04:10:13;9.17;;;5.97;;
10201;SDS011;5143;42.584;23.164;2023-06-14T04:12:40;8.00;;;5.83;;
10201;SDS011;5143;42.584;23.164;2023-06-14T04:15:09;6.77;;;5.87;;
10201;SDS011;5143;42.584;23.164;2023-06-14T04:17:36;7.87;;;5.50;;
10201;SDS011;5143;42.584;23.164;2023-06-14T04:20:03;6.47;;;5.07;;
10201;SDS011;5143;42.584;23.164;2023-06-14T04:22:31;9.03;;;5.83;;
10201;SDS011;5143;42.584;23.164;2023-06-14T04:24:58;6.50;;;5.40;;
10201;SDS011;5143;42.584;23.164;2023-06-14T04:27:25;7.57;;;5.97;;
10201;SDS011;5143;42.584;23.164;2023-06-14T04:29:52;6.70;;;5.27;;
10201;SDS011;5143;42.584;23.164;2023-06-14T04:32:24;7.87;;;4.80;;
10201;SDS011;5143;42.584;23.164;2023-06-14T04:34:52;4.60;;;3.93;;
10201;SDS011;5143;42.584;23.164;2023-06-14T04:37:19;7.27;;;4.10;;
10201;SDS011;5143;42.584;23.164;2023-06-14T04:39:46;5.90;;;3.80;;
10201;SDS011;5143;42.584;23.164;2023-06-14T04:42:12;5.77;;;3.53;;
10201;SDS011;5143;42.584;23.164;2023-06-14T04:44:39;6.17;;;3.77;;
10201;SDS011;5143;42.584;23.164;2023-06-14T04:47:06;6.60;;;4.07;;
10201;SDS011;5143;42.584;23.164;2023-06-14T04:49:34;5.10;;;4.33;;
10201;SDS011;5143;42.584;23.164;2023-06-14T04:52:00;4.73;;;4.33;;
10201;SDS011;5143;42.584;23.164;2023-06-14T04:54:27;8.40;;;5.10;;
10201;SDS011;5143;42.584;23.164;2023-06-14T04:56:56;5.90;;;4.43;;
10201;SDS011;5143;42.584;23.164;2023-06-14T04:59:23;8.30;;;4.60;;
10201;SDS011;5143;42.584;23.164;2023-06-14T05:01:49;5.83;;;4.73;;
10201;SDS011;5143;42.584;23.164;2023-06-14T05:04:16;4.50;;;3.83;;
10201;SDS011;5143;42.584;23.164;2023-06-14T05:06:44;4.60;;;4.20;;
10201;SDS011;5143;42.584;23.164;2023-06-14T05:09:13;9.00;;;3.50;;
10201;SDS011;5143;42.584;23.164;2023-06-14T05:11:40;4.33;;;3.93;;
10201;SDS011;5143;42.584;23.164;2023-06-14T05:14:07;8.93;;;3.60;;
10201;SDS011;5143;42.584;23.164;2023-06-14T05:16:33;5.47;;;4.27;;
10201;SDS011;5143;42.584;23.164;2023-06-14T05:19:00;8.37;;;5.10;;
10201;SDS011;5143;42.584;23.164;2023-06-14T05:21:27;12.30;;;5.03;;
10201;SDS011;5143;42.584;23.164;2023-06-14T05:23:55;7.43;;;6.13;;
10201;SDS011;5143;42.584;23.164;2023-06-14T05:26:22;10.60;;;6.50;;
10201;SDS011;5143;42.584;23.164;2023-06-14T05:28:53;10.03;;;6.43;;
10201;SDS011;5143;42.584;23.164;2023-06-14T05:31:21;8.97;;;5.80;;
10201;SDS011;5143;42.584;23.164;2023-06-14T05:33:48;6.50;;;5.90;;
10201;SDS011;5143;42.584;23.164;2023-06-14T05:36:14;10.80;;;6.70;;
10201;SDS011;5143;42.584;23.164;2023-06-14T05:38:41;7.80;;;5.33;;
10201;SDS011;5143;42.584;23.164;2023-06-14T05:41:09;8.50;;;6.40;;
10201;SDS011;5143;42.584;23.164;2023-06-14T05:43:35;8.53;;;6.87;;
10201;SDS011;5143;42.584;23.164;2023-06-14T05:46:02;7.27;;;6.50;;
10201;SDS011;5143;42.584;23.164;2023-06-14T05:48:28;6.57;;;5.40;;
10201;SDS011;5143;42.584;23.164;2023-06-14T05:50:55;11.07;;;7.00;;
10201;SDS011;5143;42.584;23.164;2023-06-14T05:53:21;12.23;;;6.77;;
10201;SDS011;5143;42.584;23.164;2023-06-14T05:55:49;7.83;;;6.43;;
10201;SDS011;5143;42.584;23.164;2023-06-14T05:58:18;8.73;;;7.37;;
10201;SDS011;5143;42.584;23.164;2023-06-14T06:00:44;10.17;;;7.13;;
10201;SDS011;5143;42.584;23.164;2023-06-14T06:03:11;8.47;;;7.00;;
10201;SDS011;5143;42.584;23.164;2023-06-14T06:05:38;10.33;;;6.93;;
10201;SDS011;5143;42.584;23.164;2023-06-14T06:08:04;8.53;;;7.43;;
10201;SDS011;5143;42.584;23.164;2023-06-14T06:10:31;8.63;;;6.33;;
10201;SDS011;5143;42.584;23.164;2023-06-14T06:12:57;7.57;;;5.77;;
10201;SDS011;5143;42.584;23.164;2023-06-14T06:15:25;8.40;;;6.50;;
10201;SDS011;5143;42.584;23.164;2023-06-14T06:17:52;10.17;;;5.90;;
10201;SDS011;5143;42.584;23.164;2023-06-14T06:20:18;8.43;;;6.40;;
10201;SDS011;5143;42.584;23.164;2023-06-14T06:22:45;13.03;;;6.37;;
10201;SDS011;5143;42.584;23.164;2023-06-14T06:25:11;5.97;;;5.37;;
10201;SDS011;5143;42.584;23.164;2023-06-14T06:27:39;12.73;;;5.43;;
10201;SDS011;5143;42.584;23.164;2023-06-14T06:30:06;5.43;;;4.93;;
10201;SDS011;5143;42.584;23.164;2023-06-14T06:32:34;4.97;;;4.30;;
10201;SDS011;5143;42.584;23.164;2023-06-14T06:35:01;6.65;;;4.03;;
10201;SDS011;5143;42.584;23.164;2023-06-14T06:37:28;5.60;;;4.55;;
10201;SDS011;5143;42.584;23.164;2023-06-14T06:39:55;6.40;;;4.60;;
10201;SDS011;5143;42.584;23.164;2023-06-14T06:42:21;4.40;;;3.40;;
10201;SDS011;5143;42.584;23.164;2023-06-14T06:44:47;5.20;;;4.07;;
10201;SDS011;5143;42.584;23.164;2023-06-14T06:47:14;4.32;;;3.70;;
10201;SDS011;5143;42.584;23.164;2023-06-14T06:49:42;8.25;;;3.65;;
10201;SDS011;5143;42.584;23.164;2023-06-14T06:52:09;6.28;;;4.10;;
10201;SDS011;5143;42.584;23.164;2023-06-14T06:54:35;10.05;;;4.10;;
10201;SDS011;5143;42.584;23.164;2023-06-14T06:57:02;4.70;;;3.88;;
10201;SDS011;5143;42.584;23.164;2023-06-14T06:59:28;8.48;;;4.40;;
10201;SDS011;5143;42.584;23.164;2023-06-14T07:01:55;8.70;;;5.07;;
10201;SDS011;5143;42.584;23.164;2023-06-14T07:04:22;6.47;;;4.20;;
10201;SDS011;5143;42.584;23.164;2023-06-14T07:06:49;7.40;;;5.30;;
10201;SDS011;5143;42.584;23.164;2023-06-14T07:09:16;6.30;;;4.68;;
10201;SDS011;5143;42.584;23.164;2023-06-14T07:11:44;8.38;;;4.28;;
10201;SDS011;5143;42.584;23.164;2023-06-14T07:14:11;5.82;;;4.18;;
10201;SDS011;5143;42.584;23.164;2023-06-14T07:16:38;5.82;;;4.00;;
10201;SDS011;5143;42.584;23.164;2023-06-14T07:19:06;5.55;;;3.60;;
10201;SDS011;5143;42.584;23.164;2023-06-14T07:21:32;5.00;;;3.72;;
10201;SDS011;5143;42.584;23.164;2023-06-14T07:24:00;14.93;;;4.00;;
10201;SDS011;5143;42.584;23.164;2023-06-14T07:26:27;5.35;;;3.38;;
10201;SDS011;5143;42.584;23.164;2023-06-14T07:28:53;3.67;;;3.33;;
10201;SDS011;5143;42.584;23.164;2023-06-14T07:31:20;4.80;;;3.47;;
10201;SDS011;5143;42.584;23.164;2023-06-14T07:33:46;3.90;;;3.45;;
10201;SDS011;5143;42.584;23.164;2023-06-14T07:36:13;4.30;;;3.10;;
10201;SDS011;5143;42.584;23.164;2023-06-14T07:38:39;6.53;;;3.60;;
10201;SDS011;5143;42.584;23.164;2023-06-14T07:41:08;4.47;;;3.28;;
10201;SDS011;5143;42.584;23.164;2023-06-14T07:43:34;3.95;;;3.50;;
10201;SDS011;5143;42.584;23.164;2023-06-14T07:46:01;5.43;;;4.13;;
10201;SDS011;5143;42.584;23.164;2023-06-14T07:48:28;10.65;;;4.00;;
10201;SDS011;5143;42.584;23.164;2023-06-14T07:50:54;4.85;;;4.05;;
10201;SDS011;5143;42.584;23.164;2023-06-14T07:53:21;10.90;;;4.80;;
10201;SDS011;5143;42.584;23.164;2023-06-14T07:55:47;4.10;;;3.80;;
10201;SDS011;5143;42.584;23.164;2023-06-14T07:58:17;10.63;;;5.32;;
10201;SDS011;5143;42.584;23.164;2023-06-14T08:00:44;18.33;;;5.45;;
10201;SDS011;5143;42.584;23.164;2023-06-14T08:03:11;7.25;;;4.65;;
10201;SDS011;5143;42.584;23.164;2023-06-14T08:05:37;5.72;;;4.53;;
10201;SDS011;5143;42.584;23.164;2023-06-14T08:08:04;6.93;;;4.53;;
10201;SDS011;5143;42.584;23.164;2023-06-14T08:10:30;5.00;;;4.50;;
10201;SDS011;5143;42.584;23.164;2023-06-14T08:12:57;5.95;;;4.28;;
10201;SDS011;5143;42.584;23.164;2023-06-14T08:15:24;7.63;;;4.60;;
10201;SDS011;5143;42.584;23.164;2023-06-14T08:17:51;6.50;;;5.50;;
10201;SDS011;5143;42.584;23.164;2023-06-14T08:20:18;7.07;;;5.37;;
10201;SDS011;5143;42.584;23.164;2023-06-14T08:22:44;7.53;;;5.50;;
10201;SDS011;5143;42.584;23.164;2023-06-14T08:25:13;6.10;;;5.57;;
10201;SDS011;5143;42.584;23.164;2023-06-14T08:27:40;6.67;;;5.43;;
10201;SDS011;5143;42.584;23.164;2023-06-14T08:30:07;7.47;;;5.50;;
10201;SDS011;5143;42.584;23.164;2023-06-14T08:32:35;7.50;;;5.63;;
10201;SDS011;5143;42.584;23.164;2023-06-14T08:35:01;7.37;;;5.47;;
10201;SDS011;5143;42.584;23.164;2023-06-14T08:37:28;8.07;;;5.53;;
10201;SDS011;5143;42.584;23.164;2023-06-14T08:39:55;7.67;;;5.47;;
10201;SDS011;5143;42.584;23.164;2023-06-14T08:42:22;6.20;;;4.93;;
10201;SDS011;5143;42.584;23.164;2023-06-14T08:44:50;6.97;;;4.80;;
10201;SDS011;5143;42.584;23.164;2023-06-14T08:47:16;8.23;;;4.70;;
10201;SDS011;5143;42.584;23.164;2023-06-14T08:49:45;6.13;;;4.80;;
10201;SDS011;5143;42.584;23.164;2023-06-14T08:52:13;7.07;;;4.30;;
10201;SDS011;5143;42.584;23.164;2023-06-14T08:54:43;5.80;;;4.67;;
10201;SDS011;5143;42.584;23.164;2023-06-14T08:57:13;7.30;;;4.90;;
10201;SDS011;5143;42.584;23.164;2023-06-14T08:59:42;5.53;;;5.03;;
10201;SDS011;5143;42.584;23.164;2023-06-14T09:02:11;8.57;;;5.47;;
10201;SDS011;5143;42.584;23.164;2023-06-14T09:04:39;5.73;;;5.10;;
10201;SDS011;5143;42.584;23.164;2023-06-14T09:07:07;5.40;;;4.90;;
10201;SDS011;5143;42.584;23.164;2023-06-14T09:09:38;5.90;;;4.67;;
10201;SDS011;5143;42.584;23.164;2023-06-14T09:12:06;5.50;;;4.90;;
10201;SDS011;5143;42.584;23.164;2023-06-14T09:14:35;5.50;;;4.93;;
10201;SDS011;5143;42.584;23.164;2023-06-14T09:17:03;4.70;;;4.17;;
10201;SDS011;5143;42.584;23.164;2023-06-14T09:19:30;5.20;;;4.70;;
10201;SDS011;5143;42.584;23.164;2023-06-14T09:21:56;4.73;;;4.30;;
10201;SDS011;5143;42.584;23.164;2023-06-14T09:24:25;5.00;;;4.40;;
10201;SDS011;5143;42.584;23.164;2023-06-14T09:26:51;5.60;;;4.13;;
10201;SDS011;5143;42.584;23.164;2023-06-14T09:29:18;5.07;;;4.23;;
10201;SDS011;5143;42.584;23.164;2023-06-14T09:31:45;4.77;;;4.33;;
10201;SDS011;5143;42.584;23.164;2023-06-14T09:34:12;5.70;;;4.57;;
10201;SDS011;5143;42.584;23.164;2023-06-14T09:36:39;6.73;;;4.40;;
10201;SDS011;5143;42.584;23.164;2023-06-14T09:39:06;6.17;;;4.40;;
10201;SDS011;5143;42.584;23.164;2023-06-14T09:41:35;8.77;;;4.70;;
10201;SDS011;5143;42.584;23.164;2023-06-14T09:44:02;6.40;;;4.70;;
10201;SDS011;5143;42.584;23.164;2023-06-14T09:46:29;4.87;;;4.37;;
10201;SDS011;5143;42.584;23.164;2023-06-14T09:48:56;5.70;;;4.20;;
10201;SDS011;5143;42.584;23.164;2023-06-14T09:51:22;6.97;;;5.27;;
10201;SDS011;5143;42.584;23.164;2023-06-14T09:53:49;6.03;;;5.33;;
10201;SDS011;5143;42.584;23.164;2023-06-14T09:56:16;7.53;;;4.73;;
10201;SDS011;5143;42.584;23.164;2023-06-14T09:58:48;6.43;;;4.10;;
10201;SDS011;5143;42.584;23.164;2023-06-14T10:01:17;5.07;;;3.80;;
10201;SDS011;5143;42.584;23.164;2023-06-14T10:03:44;7.47;;;3.70;;
10201;SDS011;5143;42.584;23.164;2023-06-14T10:06:11;6.83;;;3.70;;
10201;SDS011;5143;42.584;23.164;2023-06-14T10:08:38;5.23;;;3.80;;
10201;SDS011;5143;42.584;23.164;2023-06-14T10:11:05;5.90;;;3.73;;
10201;SDS011;5143;42.584;23.164;2023-06-14T10:13:32;4.40;;;4.00;;
10201;SDS011;5143;42.584;23.164;2023-06-14T10:16:03;6.40;;;3.97;;
10201;SDS011;5143;42.584;23.164;2023-06-14T10:18:34;8.17;;;4.17;;
10201;SDS011;5143;42.584;23.164;2023-06-14T10:21:05;7.07;;;3.77;;
10201;SDS011;5143;42.584;23.164;2023-06-14T10:23:35;4.73;;;4.33;;
10201;SDS011;5143;42.584;23.164;2023-06-14T10:26:03;4.30;;;3.90;;
10201;SDS011;5143;42.584;23.164;2023-06-14T10:28:30;6.03;;;3.70;;
10201;SDS011;5143;42.584;23.164;2023-06-14T10:31:06;5.20;;;4.30;;
10201;SDS011;5143;42.584;23.164;2023-06-14T10:33:33;4.27;;;3.80;;
10201;SDS011;5143;42.584;23.164;2023-06-14T10:36:09;5.93;;;4.93;;
10201;SDS011;5143;42.584;23.164;2023-06-14T10:38:36;5.13;;;4.63;;
10201;SDS011;5143;42.584;23.164;2023-06-14T10:41:03;5.10;;;3.87;;
10201;SDS011;5143;42.584;23.164;2023-06-14T10:43:30;13.03;;;4.87;;
10201;SDS011;5143;42.584;23.164;2023-06-14T10:48:42;5.83;;;3.73;;
10201;SDS011;5143;42.584;23.164;2023-06-14T10:51:15;6.07;;;3.87;;
10201;SDS011;5143;42.584;23.164;2023-06-14T10:53:45;6.87;;;3.73;;
10201;SDS011;5143;42.584;23.164;2023-06-14T10:56:22;12.57;;;4.90;;
10201;SDS011;5143;42.584;23.164;2023-06-14T10:58:49;6.37;;;5.00;;
10201;SDS011;5143;42.584;23.164;2023-06-14T11:01:17;10.07;;;5.00;;
10201;SDS011;5143;42.584;23.164;2023-06-14T11:03:50;5.27;;;4.13;;
10201;SDS011;5143;42.584;23.164;2023-06-14T11:06:17;6.73;;;4.63;;
10201;SDS011;5143;42.584;23.164;2023-06-14T11:11:33;4.70;;;4.20;;
10201;SDS011;5143;42.584;23.164;2023-06-14T11:14:00;5.33;;;4.83;;
10201;SDS011;5143;42.584;23.164;2023-06-14T11:16:27;10.10;;;5.70;;
10201;SDS011;5143;42.584;23.164;2023-06-14T11:18:55;12.95;;;5.45;;
10201;SDS011;5143;42.584;23.164;2023-06-14T11:21:22;8.77;;;5.50;;
10201;SDS011;5143;42.584;23.164;2023-06-14T11:23:50;6.60;;;5.90;;
10201;SDS011;5143;42.584;23.164;2023-06-14T11:26:24;8.03;;;5.57;;
10201;SDS011;5143;42.584;23.164;2023-06-14T11:28:54;6.70;;;6.00;;
10201;SDS011;5143;42.584;23.164;2023-06-14T11:31:21;8.07;;;6.20;;
10201;SDS011;5143;42.584;23.164;2023-06-14T11:33:49;6.27;;;5.30;;
10201;SDS011;5143;42.584;23.164;2023-06-14T11:36:17;7.63;;;5.97;;
10201;SDS011;5143;42.584;23.164;2023-06-14T11:38:43;7.03;;;5.40;;
10201;SDS011;5143;42.584;23.164;2023-06-14T11:41:10;6.13;;;5.23;;
10201;SDS011;5143;42.584;23.164;2023-06-14T11:43:36;6.67;;;4.93;;
10201;SDS011;5143;42.584;23.164;2023-06-14T11:46:03;5.10;;;4.60;;
10201;SDS011;5143;42.584;23.164;2023-06-14T11:48:36;8.30;;;4.67;;
10201;SDS011;5143;42.584;23.164;2023-06-14T11:51:04;7.83;;;5.30;;
10201;SDS011;5143;42.584;23.164;2023-06-14T11:53:32;6.13;;;5.53;;
10201;SDS011;5143;42.584;23.164;2023-06-14T11:55:58;7.13;;;5.67;;
10201;SDS011;5143;42.584;23.164;2023-06-14T11:58:25;8.57;;;5.40;;
10201;SDS011;5143;42.584;23.164;2023-06-14T12:00:52;5.97;;;5.37;;
10201;SDS011;5143;42.584;23.164;2023-06-14T12:03:22;7.60;;;4.90;;
10201;SDS011;5143;42.584;23.164;2023-06-14T12:05:48;5.77;;;5.17;;
10201;SDS011;5143;42.584;23.164;2023-06-14T12:08:15;8.80;;;5.70;;
10201;SDS011;5143;42.584;23.164;2023-06-14T12:10:45;6.40;;;5.80;;
10201;SDS011;5143;42.584;23.164;2023-06-14T12:13:12;7.57;;;5.10;;
10201;SDS011;5143;42.584;23.164;2023-06-14T12:15:39;6.93;;;5.30;;
10201;SDS011;5143;42.584;23.164;2023-06-14T12:18:05;8.67;;;4.80;;
10201;SDS011;5143;42.584;23.164;2023-06-14T12:20:33;7.90;;;5.10;;
10201;SDS011;5143;42.584;23.164;2023-06-14T12:23:02;4.70;;;4.23;;
10201;SDS011;5143;42.584;23.164;2023-06-14T12:25:29;7.27;;;5.07;;
10201;SDS011;5143;42.584;23.164;2023-06-14T12:28:03;7.73;;;4.83;;
10201;SDS011;5143;42.584;23.164;2023-06-14T12:30:30;8.07;;;5.17;;
10201;SDS011;5143;42.584;23.164;2023-06-14T12:32:56;7.23;;;4.33;;
10201;SDS011;5143;42.584;23.164;2023-06-14T12:35:23;10.90;;;4.83;;
10201;SDS011;5143;42.584;23.164;2023-06-14T12:37:49;5.87;;;4.57;;
10201;SDS011;5143;42.584;23.164;2023-06-14T12:40:16;10.30;;;4.70;;
10201;SDS011;5143;42.584;23.164;2023-06-14T12:42:44;5.40;;;4.73;;
10201;SDS011;5143;42.584;23.164;2023-06-14T12:45:13;4.97;;;4.43;;
10201;SDS011;5143;42.584;23.164;2023-06-14T12:47:40;7.50;;;4.93;;
10201;SDS011;5143;42.584;23.164;2023-06-14T12:50:08;11.57;;;4.93;;
10201;SDS011;5143;42.584;23.164;2023-06-14T12:52:34;4.80;;;4.40;;
10201;SDS011;5143;42.584;23.164;2023-06-14T12:55:01;4.80;;;4.37;;
10201;SDS011;5143;42.584;23.164;2023-06-14T12:57:28;4.90;;;4.37;;
10201;SDS011;5143;42.584;23.164;2023-06-14T12:59:55;4.53;;;4.13;;
10201;SDS011;5143;42.584;23.164;2023-06-14T13:02:22;4.90;;;4.43;;
10201;SDS011;5143;42.584;23.164;2023-06-14T13:04:50;5.10;;;4.60;;
10201;SDS011;5143;42.584;23.164;2023-06-14T13:07:17;4.50;;;4.10;;
10201;SDS011;5143;42.584;23.164;2023-06-14T13:09:43;5.83;;;4.63;;
10201;SDS011;5143;42.584;23.164;2023-06-14T13:12:10;5.27;;;4.77;;
10201;SDS011;5143;42.584;23.164;2023-06-14T13:14:37;7.83;;;4.70;;
10201;SDS011;5143;42.584;23.164;2023-06-14T13:17:04;4.80;;;4.40;;
10201;SDS011;5143;42.584;23.164;2023-06-14T13:19:32;7.90;;;4.90;;
10201;SDS011;5143;42.584;23.164;2023-06-14T13:21:58;9.07;;;5.40;;
10201;SDS011;5143;42.584;23.164;2023-06-14T13:24:25;7.43;;;4.93;;
10201;SDS011;5143;42.584;23.164;2023-06-14T13:26:51;6.77;;;4.97;;
10201;SDS011;5143;42.584;23.164;2023-06-14T13:29:18;6.07;;;5.23;;
10201;SDS011;5143;42.584;23.164;2023-06-14T13:31:44;14.43;;;6.17;;
10201;SDS011;5143;42.584;23.164;2023-06-14T13:34:11;11.33;;;6.87;;
10201;SDS011;5143;42.584;23.164;2023-06-14T13:36:39;11.77;;;6.77;;
10201;SDS011;5143;42.584;23.164;2023-06-14T13:39:05;10.53;;;7.40;;
10201;SDS011;5143;42.584;23.164;2023-06-14T13:41:32;13.40;;;8.27;;
10201;SDS011;5143;42.584;23.164;2023-06-14T13:44:00;12.03;;;7.50;;
10201;SDS011;5143;42.584;23.164;2023-06-14T13:46:29;9.37;;;7.40;;
10201;SDS011;5143;42.584;23.164;2023-06-14T13:48:55;10.07;;;8.00;;
10201;SDS011;5143;42.584;23.164;2023-06-14T13:51:22;11.13;;;8.43;;
10201;SDS011;5143;42.584;23.164;2023-06-14T13:53:50;11.27;;;8.00;;
10201;SDS011;5143;42.584;23.164;2023-06-14T13:56:17;9.63;;;7.70;;
10201;SDS011;5143;42.584;23.164;2023-06-14T13:58:44;10.07;;;7.97;;
10201;SDS011;5143;42.584;23.164;2023-06-14T14:01:11;8.50;;;7.27;;
10201;SDS011;5143;42.584;23.164;2023-06-14T14:03:37;11.67;;;8.03;;
10201;SDS011;5143;42.584;23.164;2023-06-14T14:06:04;8.97;;;8.00;;
10201;SDS011;5143;42.584;23.164;2023-06-14T14:08:32;10.07;;;8.00;;
10201;SDS011;5143;42.584;23.164;2023-06-14T14:11:00;19.90;;;9.13;;
10201;SDS011;5143;42.584;23.164;2023-06-14T14:13:26;11.50;;;8.53;;
10201;SDS011;5143;42.584;23.164;2023-06-14T14:15:53;14.90;;;8.03;;
10201;SDS011;5143;42.584;23.164;2023-06-14T14:18:19;12.63;;;9.50;;
10201;SDS011;5143;42.584;23.164;2023-06-14T14:20:46;11.57;;;9.17;;
10201;SDS011;5143;42.584;23.164;2023-06-14T14:23:12;12.50;;;7.80;;
10201;SDS011;5143;42.584;23.164;2023-06-14T14:25:39;11.80;;;8.03;;
10201;SDS011;5143;42.584;23.164;2023-06-14T14:28:07;10.60;;;7.70;;
10201;SDS011;5143;42.584;23.164;2023-06-14T14:30:33;10.40;;;8.13;;
10201;SDS011;5143;42.584;23.164;2023-06-14T14:33:03;16.93;;;8.37;;
10201;SDS011;5143;42.584;23.164;2023-06-14T14:35:29;15.23;;;8.20;;
10201;SDS011;5143;42.584;23.164;2023-06-14T14:37:56;13.77;;;8.40;;
10201;SDS011;5143;42.584;23.164;2023-06-14T14:40:23;13.90;;;9.40;;
10201;SDS011;5143;42.584;23.164;2023-06-14T14:42:49;16.40;;;9.27;;
10201;SDS011;5143;42.584;23.164;2023-06-14T14:45:17;13.37;;;9.60;;
10201;SDS011;5143;42.584;23.164;2023-06-14T14:47:44;14.67;;;9.37;;